sensor_id;sensor_type;location;lat;lon;timestamp;temperature;humidity
70986;DHT22;58645;43.068;25.610;2023-08-08T00:00:47;19.40;99.90
70986;DHT22;58645;43.068;25.610;2023-08-08T00:03:13;19.40;99.90
70986;DHT22;58645;43.068;25.610;2023-08-08T00:05:39;19.30;99.90
70986;DHT22;58645;43.068;25.610;2023-08-08T00:08:05;19.10;99.90
70986;DHT22;58645;43.068;25.610;2023-08-08T00:10:31;19.10;99.90
70986;DHT22;58645;43.068;25.610;2023-08-08T00:12:56;19.00;99.90
70986;DHT22;58645;43.068;25.610;2023-08-08T00:15:22;18.90;99.90
70986;DHT22;58645;43.068;25.610;2023-08-08T00:17:48;18.90;99.90
70986;DHT22;58645;43.068;25.610;2023-08-08T00:20:14;18.80;99.90
70986;DHT22;58645;43.068;25.610;2023-08-08T00:22:39;18.70;99.90
70986;DHT22;58645;43.068;25.610;2023-08-08T00:25:05;18.70;99.90
70986;DHT22;58645;43.068;25.610;2023-08-08T00:27:31;18.70;99.90
70986;DHT22;58645;43.068;25.610;2023-08-08T00:29:57;18.70;99.90
70986;DHT22;58645;43.068;25.610;2023-08-08T00:32:23;18.70;99.90
70986;DHT22;58645;43.068;25.610;2023-08-08T00:34:48;18.60;99.90
70986;DHT22;58645;43.068;25.610;2023-08-08T00:37:14;18.50;99.90
70986;DHT22;58645;43.068;25.610;2023-08-08T00:39:40;18.40;99.90
70986;DHT22;58645;43.068;25.610;2023-08-08T00:42:08;18.30;99.90
70986;DHT22;58645;43.068;25.610;2023-08-08T00:44:33;18.20;99.90
70986;DHT22;58645;43.068;25.610;2023-08-08T00:46:59;18.20;99.90
70986;DHT22;58645;43.068;25.610;2023-08-08T00:49:25;18.10;99.90
70986;DHT22;58645;43.068;25.610;2023-08-08T00:51:50;18.00;99.90
70986;DHT22;58645;43.068;25.610;2023-08-08T00:54:17;17.90;99.90
70986;DHT22;58645;43.068;25.610;2023-08-08T00:56:43;17.90;99.90
70986;DHT22;58645;43.068;25.610;2023-08-08T00:59:08;17.90;99.90
70986;DHT22;58645;43.068;25.610;2023-08-08T01:01:35;17.80;99.90
70986;DHT22;58645;43.068;25.610;2023-08-08T01:04:01;17.70;99.90
70986;DHT22;58645;43.068;25.610;2023-08-08T01:09:38;17.70;99.90
70986;DHT22;58645;43.068;25.610;2023-08-08T01:12:08;17.70;99.90
70986;DHT22;58645;43.068;25.610;2023-08-08T01:14:37;17.60;99.90
70986;DHT22;58645;43.068;25.610;2023-08-08T01:17:04;17.60;99.90
70986;DHT22;58645;43.068;25.610;2023-08-08T01:19:31;17.60;99.90
70986;DHT22;58645;43.068;25.610;2023-08-08T01:22:05;17.60;99.90
70986;DHT22;58645;43.068;25.610;2023-08-08T01:24:33;17.60;99.90
70986;DHT22;58645;43.068;25.610;2023-08-08T01:27:03;17.60;99.90
70986;DHT22;58645;43.068;25.610;2023-08-08T01:29:29;17.60;99.90
70986;DHT22;58645;43.068;25.610;2023-08-08T01:31:55;17.60;99.90
70986;DHT22;58645;43.068;25.610;2023-08-08T01:34:21;17.60;99.90
70986;DHT22;58645;43.068;25.610;2023-08-08T01:37:08;17.50;99.90
70986;DHT22;58645;43.068;25.610;2023-08-08T01:39:35;17.50;99.90
70986;DHT22;58645;43.068;25.610;2023-08-08T01:42:03;17.50;99.90
70986;DHT22;58645;43.068;25.610;2023-08-08T01:44:29;17.40;99.90
70986;DHT22;58645;43.068;25.610;2023-08-08T01:46:56;17.40;99.90
70986;DHT22;58645;43.068;25.610;2023-08-08T01:49:22;17.30;99.90
70986;DHT22;58645;43.068;25.610;2023-08-08T01:51:47;17.30;99.90
70986;DHT22;58645;43.068;25.610;2023-08-08T01:54:14;17.20;99.90
70986;DHT22;58645;43.068;25.610;2023-08-08T01:56:39;17.10;99.90
70986;DHT22;58645;43.068;25.610;2023-08-08T01:59:05;17.00;99.90
70986;DHT22;58645;43.068;25.610;2023-08-08T02:01:31;16.90;99.90
70986;DHT22;58645;43.068;25.610;2023-08-08T02:03:56;16.80;99.90
70986;DHT22;58645;43.068;25.610;2023-08-08T02:06:22;16.80;99.90
70986;DHT22;58645;43.068;25.610;2023-08-08T02:08:48;16.70;99.90
70986;DHT22;58645;43.068;25.610;2023-08-08T02:11:13;16.60;99.90
70986;DHT22;58645;43.068;25.610;2023-08-08T02:13:39;16.50;99.90
70986;DHT22;58645;43.068;25.610;2023-08-08T02:16:05;16.40;99.90
70986;DHT22;58645;43.068;25.610;2023-08-08T02:18:30;16.40;99.90
70986;DHT22;58645;43.068;25.610;2023-08-08T02:20:56;16.30;99.90
70986;DHT22;58645;43.068;25.610;2023-08-08T02:23:22;16.20;99.90
70986;DHT22;58645;43.068;25.610;2023-08-08T02:25:47;16.10;99.90
70986;DHT22;58645;43.068;25.610;2023-08-08T02:28:13;16.20;99.90
70986;DHT22;58645;43.068;25.610;2023-08-08T02:30:39;16.10;99.90
70986;DHT22;58645;43.068;25.610;2023-08-08T02:33:05;16.20;99.90
70986;DHT22;58645;43.068;25.610;2023-08-08T02:35:30;16.20;99.90
70986;DHT22;58645;43.068;25.610;2023-08-08T02:37:56;16.10;99.90
70986;DHT22;58645;43.068;25.610;2023-08-08T02:40:22;16.10;99.90
70986;DHT22;58645;43.068;25.610;2023-08-08T02:42:52;16.10;99.90
70986;DHT22;58645;43.068;25.610;2023-08-08T02:45:17;16.10;99.90
70986;DHT22;58645;43.068;25.610;2023-08-08T02:47:43;16.10;99.90
70986;DHT22;58645;43.068;25.610;2023-08-08T02:50:09;16.00;99.90
70986;DHT22;58645;43.068;25.610;2023-08-08T02:52:35;15.90;99.90
70986;DHT22;58645;43.068;25.610;2023-08-08T02:55:01;16.00;99.90
70986;DHT22;58645;43.068;25.610;2023-08-08T02:57:28;16.00;99.90
70986;DHT22;58645;43.068;25.610;2023-08-08T02:59:53;16.10;99.90
70986;DHT22;58645;43.068;25.610;2023-08-08T03:02:19;16.10;99.90
70986;DHT22;58645;43.068;25.610;2023-08-08T03:04:45;16.10;99.90
70986;DHT22;58645;43.068;25.610;2023-08-08T03:07:10;16.10;99.90
70986;DHT22;58645;43.068;25.610;2023-08-08T03:09:36;16.10;99.90
70986;DHT22;58645;43.068;25.610;2023-08-08T03:12:02;16.10;99.90
70986;DHT22;58645;43.068;25.610;2023-08-08T03:14:28;16.00;99.90
70986;DHT22;58645;43.068;25.610;2023-08-08T03:16:54;16.10;99.90
70986;DHT22;58645;43.068;25.610;2023-08-08T03:19:20;16.10;99.90
70986;DHT22;58645;43.068;25.610;2023-08-08T03:21:46;16.10;99.90
70986;DHT22;58645;43.068;25.610;2023-08-08T03:24:11;16.10;99.90
70986;DHT22;58645;43.068;25.610;2023-08-08T03:26:37;16.10;99.90
70986;DHT22;58645;43.068;25.610;2023-08-08T03:29:03;16.10;99.90
70986;DHT22;58645;43.068;25.610;2023-08-08T03:31:29;16.10;99.90
70986;DHT22;58645;43.068;25.610;2023-08-08T03:33:54;16.00;99.90
70986;DHT22;58645;43.068;25.610;2023-08-08T03:36:20;16.00;99.90
70986;DHT22;58645;43.068;25.610;2023-08-08T03:38:46;16.00;99.90
70986;DHT22;58645;43.068;25.610;2023-08-08T03:41:12;16.00;99.90
70986;DHT22;58645;43.068;25.610;2023-08-08T03:43:39;16.00;99.90
70986;DHT22;58645;43.068;25.610;2023-08-08T03:46:05;16.00;99.90
70986;DHT22;58645;43.068;25.610;2023-08-08T03:48:31;16.00;99.90
70986;DHT22;58645;43.068;25.610;2023-08-08T03:50:56;16.00;99.90
70986;DHT22;58645;43.068;25.610;2023-08-08T03:53:23;16.00;99.90
70986;DHT22;58645;43.068;25.610;2023-08-08T03:55:49;16.00;99.90
70986;DHT22;58645;43.068;25.610;2023-08-08T03:58:15;15.90;99.90
70986;DHT22;58645;43.068;25.610;2023-08-08T04:00:40;15.90;99.90
70986;DHT22;58645;43.068;25.610;2023-08-08T04:03:14;16.00;99.90
70986;DHT22;58645;43.068;25.610;2023-08-08T04:05:48;15.90;99.90
70986;DHT22;58645;43.068;25.610;2023-08-08T04:08:15;15.90;99.90
70986;DHT22;58645;43.068;25.610;2023-08-08T04:10:41;15.80;99.90
70986;DHT22;58645;43.068;25.610;2023-08-08T04:13:07;15.90;99.90
70986;DHT22;58645;43.068;25.610;2023-08-08T04:15:33;15.90;99.90
70986;DHT22;58645;43.068;25.610;2023-08-08T04:17:59;15.90;99.90
70986;DHT22;58645;43.068;25.610;2023-08-08T04:20:24;15.90;99.90
70986;DHT22;58645;43.068;25.610;2023-08-08T04:22:50;15.80;99.90
70986;DHT22;58645;43.068;25.610;2023-08-08T04:25:16;15.80;99.90
70986;DHT22;58645;43.068;25.610;2023-08-08T04:27:41;15.80;99.90
70986;DHT22;58645;43.068;25.610;2023-08-08T04:30:08;15.90;99.90
70986;DHT22;58645;43.068;25.610;2023-08-08T04:32:34;15.80;99.90
70986;DHT22;58645;43.068;25.610;2023-08-08T04:35:00;15.90;99.90
70986;DHT22;58645;43.068;25.610;2023-08-08T04:37:25;15.80;99.90
70986;DHT22;58645;43.068;25.610;2023-08-08T04:39:51;15.80;99.90
70986;DHT22;58645;43.068;25.610;2023-08-08T04:42:17;15.80;99.90
70986;DHT22;58645;43.068;25.610;2023-08-08T04:44:42;15.80;99.90
70986;DHT22;58645;43.068;25.610;2023-08-08T04:47:08;15.90;99.90
70986;DHT22;58645;43.068;25.610;2023-08-08T04:49:34;15.90;99.90
70986;DHT22;58645;43.068;25.610;2023-08-08T04:51:59;15.90;99.90
70986;DHT22;58645;43.068;25.610;2023-08-08T04:54:25;15.90;99.90
70986;DHT22;58645;43.068;25.610;2023-08-08T04:56:51;15.90;99.90
70986;DHT22;58645;43.068;25.610;2023-08-08T04:59:17;15.90;99.90
70986;DHT22;58645;43.068;25.610;2023-08-08T05:01:42;15.80;99.90
70986;DHT22;58645;43.068;25.610;2023-08-08T05:04:08;15.80;99.90
70986;DHT22;58645;43.068;25.610;2023-08-08T05:06:34;15.80;99.90
70986;DHT22;58645;43.068;25.610;2023-08-08T05:09:00;15.80;99.90
70986;DHT22;58645;43.068;25.610;2023-08-08T05:11:26;15.90;99.90
70986;DHT22;58645;43.068;25.610;2023-08-08T05:13:51;15.90;99.90
70986;DHT22;58645;43.068;25.610;2023-08-08T05:16:18;15.90;99.90
70986;DHT22;58645;43.068;25.610;2023-08-08T05:18:44;15.90;99.90
70986;DHT22;58645;43.068;25.610;2023-08-08T05:21:10;16.00;99.90
70986;DHT22;58645;43.068;25.610;2023-08-08T05:23:36;16.00;99.90
70986;DHT22;58645;43.068;25.610;2023-08-08T05:26:02;16.00;99.90
70986;DHT22;58645;43.068;25.610;2023-08-08T05:28:28;15.90;99.90
70986;DHT22;58645;43.068;25.610;2023-08-08T05:30:54;15.90;99.90
70986;DHT22;58645;43.068;25.610;2023-08-08T05:33:21;15.90;99.90
70986;DHT22;58645;43.068;25.610;2023-08-08T05:35:47;15.80;99.90
70986;DHT22;58645;43.068;25.610;2023-08-08T05:38:13;15.90;99.90
70986;DHT22;58645;43.068;25.610;2023-08-08T05:40:39;15.90;99.90
70986;DHT22;58645;43.068;25.610;2023-08-08T05:43:04;15.90;99.90
70986;DHT22;58645;43.068;25.610;2023-08-08T05:45:30;15.90;99.90
70986;DHT22;58645;43.068;25.610;2023-08-08T05:47:57;15.90;99.90
70986;DHT22;58645;43.068;25.610;2023-08-08T05:50:25;16.00;99.90
70986;DHT22;58645;43.068;25.610;2023-08-08T05:52:50;16.00;99.90
70986;DHT22;58645;43.068;25.610;2023-08-08T05:55:16;16.00;99.90
70986;DHT22;58645;43.068;25.610;2023-08-08T05:57:42;16.00;99.90
70986;DHT22;58645;43.068;25.610;2023-08-08T06:00:08;16.00;99.90
70986;DHT22;58645;43.068;25.610;2023-08-08T06:02:37;16.00;99.90
70986;DHT22;58645;43.068;25.610;2023-08-08T06:05:07;16.00;99.90
70986;DHT22;58645;43.068;25.610;2023-08-08T06:07:32;15.90;99.90
70986;DHT22;58645;43.068;25.610;2023-08-08T06:09:59;15.90;99.90
70986;DHT22;58645;43.068;25.610;2023-08-08T06:12:24;15.90;99.90
70986;DHT22;58645;43.068;25.610;2023-08-08T06:14:50;15.90;99.90
70986;DHT22;58645;43.068;25.610;2023-08-08T06:17:16;15.90;99.90
70986;DHT22;58645;43.068;25.610;2023-08-08T06:19:41;15.80;99.90
70986;DHT22;58645;43.068;25.610;2023-08-08T06:22:07;15.70;99.90
70986;DHT22;58645;43.068;25.610;2023-08-08T06:24:33;15.70;99.90
70986;DHT22;58645;43.068;25.610;2023-08-08T06:26:58;15.70;99.90
70986;DHT22;58645;43.068;25.610;2023-08-08T06:29:24;15.80;99.90
70986;DHT22;58645;43.068;25.610;2023-08-08T06:31:50;15.80;99.90
70986;DHT22;58645;43.068;25.610;2023-08-08T06:34:16;15.80;99.90
70986;DHT22;58645;43.068;25.610;2023-08-08T06:36:41;15.90;99.90
70986;DHT22;58645;43.068;25.610;2023-08-08T06:39:07;15.90;99.90
70986;DHT22;58645;43.068;25.610;2023-08-08T06:41:33;15.90;99.90
70986;DHT22;58645;43.068;25.610;2023-08-08T06:43:59;15.90;99.90
70986;DHT22;58645;43.068;25.610;2023-08-08T06:46:25;15.90;99.90
70986;DHT22;58645;43.068;25.610;2023-08-08T06:48:51;15.90;99.90
70986;DHT22;58645;43.068;25.610;2023-08-08T06:51:21;15.90;99.90
70986;DHT22;58645;43.068;25.610;2023-08-08T06:53:47;15.80;99.90
70986;DHT22;58645;43.068;25.610;2023-08-08T06:56:13;15.90;99.90
70986;DHT22;58645;43.068;25.610;2023-08-08T06:58:38;15.90;99.90
70986;DHT22;58645;43.068;25.610;2023-08-08T07:01:04;15.90;99.90
70986;DHT22;58645;43.068;25.610;2023-08-08T07:03:30;15.90;99.90
70986;DHT22;58645;43.068;25.610;2023-08-08T07:05:56;15.90;99.90
70986;DHT22;58645;43.068;25.610;2023-08-08T07:08:21;16.00;99.90
70986;DHT22;58645;43.068;25.610;2023-08-08T07:10:47;16.00;99.90
70986;DHT22;58645;43.068;25.610;2023-08-08T07:13:13;16.10;99.90
70986;DHT22;58645;43.068;25.610;2023-08-08T07:15:41;16.20;99.90
70986;DHT22;58645;43.068;25.610;2023-08-08T07:18:06;16.40;99.90
70986;DHT22;58645;43.068;25.610;2023-08-08T07:20:32;16.40;99.90
70986;DHT22;58645;43.068;25.610;2023-08-08T07:22:59;16.60;99.90
70986;DHT22;58645;43.068;25.610;2023-08-08T07:25:26;16.60;99.90
70986;DHT22;58645;43.068;25.610;2023-08-08T07:27:51;16.60;99.90
70986;DHT22;58645;43.068;25.610;2023-08-08T07:30:17;16.70;99.90
70986;DHT22;58645;43.068;25.610;2023-08-08T07:32:43;16.80;99.90
70986;DHT22;58645;43.068;25.610;2023-08-08T07:35:09;16.90;99.90
70986;DHT22;58645;43.068;25.610;2023-08-08T07:37:35;17.00;99.90
70986;DHT22;58645;43.068;25.610;2023-08-08T07:40:01;17.20;99.90
70986;DHT22;58645;43.068;25.610;2023-08-08T07:42:27;17.20;99.90
70986;DHT22;58645;43.068;25.610;2023-08-08T07:44:53;17.20;99.90
70986;DHT22;58645;43.068;25.610;2023-08-08T07:47:19;17.20;99.90
70986;DHT22;58645;43.068;25.610;2023-08-08T07:49:45;17.20;99.90
70986;DHT22;58645;43.068;25.610;2023-08-08T07:52:10;17.20;99.90
70986;DHT22;58645;43.068;25.610;2023-08-08T07:54:36;17.30;99.90
70986;DHT22;58645;43.068;25.610;2023-08-08T07:57:02;17.30;99.90
70986;DHT22;58645;43.068;25.610;2023-08-08T07:59:28;17.40;99.90
70986;DHT22;58645;43.068;25.610;2023-08-08T08:01:53;17.60;99.90
70986;DHT22;58645;43.068;25.610;2023-08-08T08:04:19;17.70;99.90
70986;DHT22;58645;43.068;25.610;2023-08-08T08:06:45;17.70;99.90
70986;DHT22;58645;43.068;25.610;2023-08-08T08:09:10;17.90;99.90
70986;DHT22;58645;43.068;25.610;2023-08-08T08:11:36;17.90;99.90
70986;DHT22;58645;43.068;25.610;2023-08-08T08:14:02;17.90;99.90
70986;DHT22;58645;43.068;25.610;2023-08-08T08:16:27;18.00;99.90
70986;DHT22;58645;43.068;25.610;2023-08-08T08:18:53;18.10;99.90
70986;DHT22;58645;43.068;25.610;2023-08-08T08:21:19;18.30;99.90
70986;DHT22;58645;43.068;25.610;2023-08-08T08:23:46;18.40;99.90
70986;DHT22;58645;43.068;25.610;2023-08-08T08:26:11;18.50;99.90
70986;DHT22;58645;43.068;25.610;2023-08-08T08:28:37;18.50;99.90
70986;DHT22;58645;43.068;25.610;2023-08-08T08:31:06;18.90;99.90
70986;DHT22;58645;43.068;25.610;2023-08-08T08:33:32;19.70;99.90
70986;DHT22;58645;43.068;25.610;2023-08-08T08:35:57;20.10;99.90
70986;DHT22;58645;43.068;25.610;2023-08-08T08:38:23;20.80;99.90
70986;DHT22;58645;43.068;25.610;2023-08-08T08:40:49;21.90;99.90
70986;DHT22;58645;43.068;25.610;2023-08-08T08:43:17;22.70;99.90
70986;DHT22;58645;43.068;25.610;2023-08-08T08:45:50;23.50;99.90
70986;DHT22;58645;43.068;25.610;2023-08-08T08:48:17;24.10;99.90
70986;DHT22;58645;43.068;25.610;2023-08-08T08:50:47;24.60;96.00
70986;DHT22;58645;43.068;25.610;2023-08-08T08:53:13;25.30;96.30
70986;DHT22;58645;43.068;25.610;2023-08-08T08:55:41;25.80;90.70
70986;DHT22;58645;43.068;25.610;2023-08-08T08:58:07;26.00;90.40
70986;DHT22;58645;43.068;25.610;2023-08-08T09:00:33;26.00;86.60
70986;DHT22;58645;43.068;25.610;2023-08-08T09:03:01;26.60;85.40
70986;DHT22;58645;43.068;25.610;2023-08-08T09:05:26;26.80;81.30
70986;DHT22;58645;43.068;25.610;2023-08-08T09:07:53;26.60;84.00
70986;DHT22;58645;43.068;25.610;2023-08-08T09:10:19;26.80;77.60
70986;DHT22;58645;43.068;25.610;2023-08-08T09:12:45;26.90;75.80
70986;DHT22;58645;43.068;25.610;2023-08-08T09:15:12;27.10;73.60
70986;DHT22;58645;43.068;25.610;2023-08-08T09:17:42;27.30;74.00
70986;DHT22;58645;43.068;25.610;2023-08-08T09:20:09;27.40;73.20
70986;DHT22;58645;43.068;25.610;2023-08-08T09:22:37;27.50;76.10
70986;DHT22;58645;43.068;25.610;2023-08-08T09:25:03;28.10;71.80
70986;DHT22;58645;43.068;25.610;2023-08-08T09:27:29;27.80;70.00
70986;DHT22;58645;43.068;25.610;2023-08-08T09:29:55;28.10;70.80
70986;DHT22;58645;43.068;25.610;2023-08-08T09:32:21;28.30;70.10
70986;DHT22;58645;43.068;25.610;2023-08-08T09:34:46;28.30;66.60
70986;DHT22;58645;43.068;25.610;2023-08-08T09:37:33;28.20;65.60
70986;DHT22;58645;43.068;25.610;2023-08-08T09:39:59;28.00;64.30
70986;DHT22;58645;43.068;25.610;2023-08-08T09:42:29;27.70;65.50
70986;DHT22;58645;43.068;25.610;2023-08-08T09:44:58;28.10;64.60
70986;DHT22;58645;43.068;25.610;2023-08-08T09:47:24;28.00;62.30
70986;DHT22;58645;43.068;25.610;2023-08-08T09:49:50;28.30;61.00
70986;DHT22;58645;43.068;25.610;2023-08-08T09:52:17;28.70;59.70
70986;DHT22;58645;43.068;25.610;2023-08-08T09:54:45;28.70;57.60
70986;DHT22;58645;43.068;25.610;2023-08-08T09:57:12;27.80;58.50
70986;DHT22;58645;43.068;25.610;2023-08-08T09:59:39;27.10;60.50
70986;DHT22;58645;43.068;25.610;2023-08-08T10:02:05;27.20;63.30
70986;DHT22;58645;43.068;25.610;2023-08-08T10:04:34;27.30;61.20
70986;DHT22;58645;43.068;25.610;2023-08-08T10:07:00;28.00;60.70
70986;DHT22;58645;43.068;25.610;2023-08-08T10:09:26;28.40;58.40
70986;DHT22;58645;43.068;25.610;2023-08-08T10:11:54;29.10;55.70
70986;DHT22;58645;43.068;25.610;2023-08-08T10:14:31;29.30;54.80
70986;DHT22;58645;43.068;25.610;2023-08-08T10:16:57;28.80;53.40
70986;DHT22;58645;43.068;25.610;2023-08-08T10:19:23;29.10;57.90
70986;DHT22;58645;43.068;25.610;2023-08-08T10:21:57;30.10;53.60
70986;DHT22;58645;43.068;25.610;2023-08-08T10:24:23;29.60;54.70
70986;DHT22;58645;43.068;25.610;2023-08-08T10:26:59;29.80;51.30
70986;DHT22;58645;43.068;25.610;2023-08-08T10:29:29;29.60;50.30
70986;DHT22;58645;43.068;25.610;2023-08-08T10:32:06;29.80;51.70
70986;DHT22;58645;43.068;25.610;2023-08-08T10:37:05;30.10;49.90
70986;DHT22;58645;43.068;25.610;2023-08-08T10:39:31;30.40;51.30
70986;DHT22;58645;43.068;25.610;2023-08-08T10:42:03;30.20;45.80
70986;DHT22;58645;43.068;25.610;2023-08-08T10:44:29;30.00;46.90
70986;DHT22;58645;43.068;25.610;2023-08-08T10:46:55;30.10;46.60
70986;DHT22;58645;43.068;25.610;2023-08-08T10:49:21;30.40;48.60
70986;DHT22;58645;43.068;25.610;2023-08-08T10:51:49;31.00;48.10
70986;DHT22;58645;43.068;25.610;2023-08-08T10:54:20;31.10;45.10
70986;DHT22;58645;43.068;25.610;2023-08-08T10:56:47;30.10;46.00
70986;DHT22;58645;43.068;25.610;2023-08-08T10:59:18;29.20;47.30
70986;DHT22;58645;43.068;25.610;2023-08-08T11:01:46;28.80;49.70
70986;DHT22;58645;43.068;25.610;2023-08-08T11:04:13;29.40;48.10
70986;DHT22;58645;43.068;25.610;2023-08-08T11:06:42;29.70;47.10
70986;DHT22;58645;43.068;25.610;2023-08-08T11:09:11;29.90;44.40
70986;DHT22;58645;43.068;25.610;2023-08-08T11:11:41;30.40;44.10
70986;DHT22;58645;43.068;25.610;2023-08-08T11:14:14;30.40;46.80
70986;DHT22;58645;43.068;25.610;2023-08-08T11:16:41;30.40;44.60
70986;DHT22;58645;43.068;25.610;2023-08-08T11:19:08;30.20;42.90
70986;DHT22;58645;43.068;25.610;2023-08-08T11:21:40;29.40;44.00
70986;DHT22;58645;43.068;25.610;2023-08-08T11:24:06;28.70;45.90
70986;DHT22;58645;43.068;25.610;2023-08-08T11:26:37;28.30;46.70
70986;DHT22;58645;43.068;25.610;2023-08-08T11:29:04;27.70;47.40
70986;DHT22;58645;43.068;25.610;2023-08-08T11:31:31;27.80;45.90
70986;DHT22;58645;43.068;25.610;2023-08-08T11:33:58;28.60;45.20
70986;DHT22;58645;43.068;25.610;2023-08-08T11:36:26;29.10;45.60
70986;DHT22;58645;43.068;25.610;2023-08-08T11:38:54;29.60;45.30
70986;DHT22;58645;43.068;25.610;2023-08-08T11:41:23;29.80;44.30
70986;DHT22;58645;43.068;25.610;2023-08-08T11:43:50;30.00;43.20
70986;DHT22;58645;43.068;25.610;2023-08-08T11:46:17;30.00;43.40
70986;DHT22;58645;43.068;25.610;2023-08-08T11:48:46;30.30;42.80
70986;DHT22;58645;43.068;25.610;2023-08-08T11:51:14;30.50;43.60
70986;DHT22;58645;43.068;25.610;2023-08-08T11:53:51;29.70;42.00
70986;DHT22;58645;43.068;25.610;2023-08-08T11:56:20;29.40;43.40
70986;DHT22;58645;43.068;25.610;2023-08-08T11:58:49;28.90;44.60
70986;DHT22;58645;43.068;25.610;2023-08-08T12:01:19;28.30;46.20
70986;DHT22;58645;43.068;25.610;2023-08-08T12:03:46;28.00;47.20
70986;DHT22;58645;43.068;25.610;2023-08-08T12:06:16;28.20;46.50
70986;DHT22;58645;43.068;25.610;2023-08-08T12:08:43;28.90;45.30
70986;DHT22;58645;43.068;25.610;2023-08-08T12:11:10;29.20;46.00
70986;DHT22;58645;43.068;25.610;2023-08-08T12:13:41;29.60;44.60
70986;DHT22;58645;43.068;25.610;2023-08-08T12:16:12;29.70;43.00
70986;DHT22;58645;43.068;25.610;2023-08-08T12:18:39;28.70;44.60
70986;DHT22;58645;43.068;25.610;2023-08-08T12:21:06;28.80;45.90
70986;DHT22;58645;43.068;25.610;2023-08-08T12:23:34;28.80;43.90
70986;DHT22;58645;43.068;25.610;2023-08-08T12:26:02;29.20;44.60
70986;DHT22;58645;43.068;25.610;2023-08-08T12:28:28;29.70;43.30
70986;DHT22;58645;43.068;25.610;2023-08-08T12:30:54;29.80;43.20
70986;DHT22;58645;43.068;25.610;2023-08-08T12:33:20;29.90;41.70
70986;DHT22;58645;43.068;25.610;2023-08-08T12:35:47;29.90;43.10
70986;DHT22;58645;43.068;25.610;2023-08-08T12:38:13;30.10;42.00
70986;DHT22;58645;43.068;25.610;2023-08-08T12:40:39;29.30;41.80
70986;DHT22;58645;43.068;25.610;2023-08-08T12:43:05;29.40;43.10
70986;DHT22;58645;43.068;25.610;2023-08-08T12:45:31;29.50;43.70
70986;DHT22;58645;43.068;25.610;2023-08-08T12:47:57;29.20;43.10
70986;DHT22;58645;43.068;25.610;2023-08-08T12:50:22;28.70;44.00
70986;DHT22;58645;43.068;25.610;2023-08-08T12:52:49;28.90;44.00
70986;DHT22;58645;43.068;25.610;2023-08-08T12:55:15;28.80;43.40
70986;DHT22;58645;43.068;25.610;2023-08-08T12:57:43;29.20;43.50
70986;DHT22;58645;43.068;25.610;2023-08-08T13:00:10;29.20;43.40
70986;DHT22;58645;43.068;25.610;2023-08-08T13:02:38;29.40;42.80
70986;DHT22;58645;43.068;25.610;2023-08-08T13:05:04;29.50;42.10
70986;DHT22;58645;43.068;25.610;2023-08-08T13:07:32;29.00;44.10
70986;DHT22;58645;43.068;25.610;2023-08-08T13:09:58;28.80;44.70
70986;DHT22;58645;43.068;25.610;2023-08-08T13:12:24;28.70;43.00
70986;DHT22;58645;43.068;25.610;2023-08-08T13:14:49;28.70;43.60
70986;DHT22;58645;43.068;25.610;2023-08-08T13:17:15;28.50;45.00
70986;DHT22;58645;43.068;25.610;2023-08-08T13:19:41;28.60;44.40
70986;DHT22;58645;43.068;25.610;2023-08-08T13:22:07;28.50;45.30
70986;DHT22;58645;43.068;25.610;2023-08-08T13:24:33;28.30;46.00
70986;DHT22;58645;43.068;25.610;2023-08-08T13:26:58;28.00;46.50
70986;DHT22;58645;43.068;25.610;2023-08-08T13:29:24;28.00;44.50
70986;DHT22;58645;43.068;25.610;2023-08-08T13:31:50;27.80;44.70
70986;DHT22;58645;43.068;25.610;2023-08-08T13:34:15;27.40;47.50
70986;DHT22;58645;43.068;25.610;2023-08-08T13:36:41;27.00;48.90
70986;DHT22;58645;43.068;25.610;2023-08-08T13:39:07;26.80;48.10
70986;DHT22;58645;43.068;25.610;2023-08-08T13:41:35;26.70;47.60
70986;DHT22;58645;43.068;25.610;2023-08-08T13:44:00;26.70;47.70
70986;DHT22;58645;43.068;25.610;2023-08-08T13:46:26;26.60;48.50
70986;DHT22;58645;43.068;25.610;2023-08-08T13:48:52;26.60;49.30
70986;DHT22;58645;43.068;25.610;2023-08-08T13:51:18;26.60;48.70
70986;DHT22;58645;43.068;25.610;2023-08-08T13:53:43;26.60;48.20
70986;DHT22;58645;43.068;25.610;2023-08-08T13:56:10;26.20;48.90
70986;DHT22;58645;43.068;25.610;2023-08-08T13:58:36;26.10;49.70
70986;DHT22;58645;43.068;25.610;2023-08-08T14:01:02;26.00;49.80
70986;DHT22;58645;43.068;25.610;2023-08-08T14:03:28;25.90;49.20
70986;DHT22;58645;43.068;25.610;2023-08-08T14:05:54;25.60;49.60
70986;DHT22;58645;43.068;25.610;2023-08-08T14:08:19;25.30;50.80
70986;DHT22;58645;43.068;25.610;2023-08-08T14:10:46;25.00;52.60
70986;DHT22;58645;43.068;25.610;2023-08-08T14:13:12;25.00;52.00
70986;DHT22;58645;43.068;25.610;2023-08-08T14:15:38;25.00;51.70
70986;DHT22;58645;43.068;25.610;2023-08-08T14:18:04;25.00;51.20
70986;DHT22;58645;43.068;25.610;2023-08-08T14:20:30;25.00;51.30
70986;DHT22;58645;43.068;25.610;2023-08-08T14:22:56;25.10;51.40
70986;DHT22;58645;43.068;25.610;2023-08-08T14:25:22;25.10;51.80
70986;DHT22;58645;43.068;25.610;2023-08-08T14:27:48;25.20;51.90
70986;DHT22;58645;43.068;25.610;2023-08-08T14:30:14;25.30;52.40
70986;DHT22;58645;43.068;25.610;2023-08-08T14:32:39;25.30;52.20
70986;DHT22;58645;43.068;25.610;2023-08-08T14:35:05;25.30;52.30
70986;DHT22;58645;43.068;25.610;2023-08-08T14:37:37;25.10;51.80
70986;DHT22;58645;43.068;25.610;2023-08-08T14:40:03;25.00;52.60
70986;DHT22;58645;43.068;25.610;2023-08-08T14:42:29;24.90;52.40
70986;DHT22;58645;43.068;25.610;2023-08-08T14:44:54;24.80;52.80
70986;DHT22;58645;43.068;25.610;2023-08-08T14:47:20;24.90;53.40
70986;DHT22;58645;43.068;25.610;2023-08-08T14:49:46;25.00;53.60
70986;DHT22;58645;43.068;25.610;2023-08-08T14:52:13;25.10;53.60
70986;DHT22;58645;43.068;25.610;2023-08-08T14:54:39;25.10;53.00
70986;DHT22;58645;43.068;25.610;2023-08-08T14:57:05;25.20;52.70
70986;DHT22;58645;43.068;25.610;2023-08-08T14:59:31;25.20;51.00
70986;DHT22;58645;43.068;25.610;2023-08-08T15:01:56;25.20;52.70
70986;DHT22;58645;43.068;25.610;2023-08-08T15:04:22;25.10;52.00
70986;DHT22;58645;43.068;25.610;2023-08-08T15:06:47;25.00;52.40
70986;DHT22;58645;43.068;25.610;2023-08-08T15:09:13;25.00;53.60
70986;DHT22;58645;43.068;25.610;2023-08-08T15:11:39;25.10;53.20
70986;DHT22;58645;43.068;25.610;2023-08-08T15:14:05;25.00;52.80
70986;DHT22;58645;43.068;25.610;2023-08-08T15:16:30;25.00;52.50